createdAt,value
2018-11-22T13:02:36.191Z,39.03
2018-11-22T13:04:58.931Z,40.70
2018-11-22T13:07:21.575Z,39.83
2018-11-22T13:09:44.272Z,38.87
2018-11-22T13:12:07.081Z,38.03
2018-11-22T13:14:29.753Z,39.67
2018-11-22T14:00:21.558Z,43.10
2018-11-22T14:02:44.941Z,43.47
2018-11-22T14:05:12.485Z,46.80
2018-11-22T14:07:36.043Z,46.23
2018-11-22T14:09:59.847Z,43.97
2018-11-22T14:12:22.989Z,49.10
2018-11-22T14:14:45.949Z,46.47
2018-11-22T15:00:26.782Z,57.67
2018-11-22T15:02:49.477Z,57.70
2018-11-22T15:05:12.815Z,61.67
2018-11-22T15:07:35.575Z,60.40
2018-11-22T15:09:58.229Z,56.30
2018-11-22T15:12:20.944Z,61.60
2018-11-22T15:14:43.636Z,61.43
2018-11-22T17:05:03.036Z,70.30
2018-11-22T17:07:25.844Z,62.70
2018-11-22T17:09:48.609Z,61.37
2018-11-22T17:12:11.288Z,59.97
2018-11-22T17:14:33.997Z,69.10
2018-11-22T18:00:18.812Z,62.80
2018-11-22T18:02:41.573Z,66.20
2018-11-22T18:05:05.037Z,64.43
2018-11-22T18:07:27.701Z,70.93
2018-11-22T18:09:50.433Z,64.40
2018-11-22T18:12:13.101Z,68.17
2018-11-22T18:14:35.916Z,64.77
2018-11-22T19:00:19.365Z,77.70
2018-11-22T19:02:43.872Z,84.20
2018-11-22T19:05:07.576Z,80.63
2018-11-22T19:07:31.817Z,91.00
2018-11-22T19:09:59.579Z,84.67
2018-11-22T19:12:22.594Z,70.97
2018-11-22T19:14:45.372Z,71.20
2018-11-22T20:00:20.389Z,89.23
2018-11-22T20:02:43.752Z,86.33
2018-11-22T20:05:07.546Z,85.93
2018-11-22T20:07:30.264Z,82.37
2018-11-22T20:09:52.951Z,88.67
2018-11-22T20:12:15.668Z,89.53
2018-11-22T20:14:38.349Z,97.40
2018-11-22T21:00:18.708Z,81.33
2018-11-22T21:02:41.640Z,84.80
2018-11-22T21:05:05.556Z,90.50
2018-11-22T21:07:28.266Z,85.97
2018-11-22T21:09:51.001Z,96.73
2018-11-22T21:12:13.749Z,89.23
2018-11-22T21:14:36.529Z,87.37
